Etusivu
METAR-TAF:

METAR-TAF

Lentoasemat :

Thompsonin lentoasema

Thompson, Manitoba, Kanada

Leveyspiiri: 55-48N, Pituuspiiri: 097-51W, korkeus merenpinnasta: 204 m

Tämänhetkinen sää

Tämä raportti tehtiin 1 tunti ja 8 minuuttia sitten, kello 13.00 UTC
Tuuli 2 kn etelästä/kaakosta
Lämpötila -14°C
Kosteus 92%
Ilmanpaine 1012 hPa
Näkyvyys: 24.1 km
Pilvistä 600 ft:n korkeudessa

METAR: CYTH 251300Z 16002KT 15SM OVC006 M14/M15 A2987 RMK SC8 SLP137

Aika: 08:08 (14:08 UTC)

Sääennuste

Tämä raportti tehtiin 1 tunti ja 30 minuuttia sitten, kello 12.38 UTC
Ennuste voimassa 25. päivästä klo 13 UTC - 26. päivään klo 01 UTC
Tuuli 3 kn eri suunnista
Näkyvyys: 10 km
Pilvistä 800 ft:n korkeudessa
Ajoittain
25. päivästä klo 13 UTC - 26. päivään klo 01 UTC
Pilvistä 1200 ft:n korkeudessa

TAF: CYTH 251238Z 2513/2601 VRB03KT P6SM OVC008 TEMPO 2513/2601 OVC012 RMK NXT FCST BY 251900Z

Säähavainnot ja -ennusteet yli 4000 lentoasemalta (METAR- ja TAF-raportit).

Käytössä olevat sääasemat on merkitty karttaan keltaisilla ja punaisilla pisteillä.

Aseta hiiri pisteen päälle nähdäksesi sääaseman nimen.

Klikkaa sitten nähdäksesi säähavainnot ja -ennusteet.

Kartan vaihtaminen: klikkaa mustalla rastilla varustettuja vihreitä pisteitä, niin voit zoomata sisään; viivalla varustettua vihreää pistettä, niin voit zoomata ulos tai vihreitä nuolia, niin pääset viereisille kartoille.


METAR-TAF: